Time;durP1;ratioP1;P1;durP2;ratioP2;P2;SDS_P1;SDS_P2;PMS_P1;PMS_P2;Temp;Humidity;BMP_temperature;BMP_pressure;BME280_temperature;BME280_humidity;BME280_pressure;Samples;Min_cycle;Max_cycle;Signal;HPM_P1;HPM_P2
2022/05/26 00:01:34;;;;;;;0.00;0.00;;;14.30;99.90;226.50;231333.00;;;;5093004;28;20212;-70
2022/05/26 00:04:03;;;;;;;0.00;0.00;;;14.30;99.90;226.50;231333.00;;;;5086809;28;20195;-70
2022/05/26 00:06:32;;;;;;;0.10;0.10;;;14.30;99.90;226.50;231333.00;;;;5078797;28;20197;-70
2022/05/26 00:09:01;;;;;;;0.00;0.00;;;14.30;99.90;226.50;231333.00;;;;5092640;28;20247;-70
2022/05/26 00:11:38;;;;;;;0.10;0.10;;;14.30;63.60;226.50;231333.00;;;;5092500;28;20213;-70
2022/05/26 00:14:10;;;;;;;0.00;0.00;;;14.30;1.00;226.50;231333.00;;;;5084642;28;20197;-70
2022/05/26 00:16:41;;;;;;;0.00;0.00;;;14.20;40.30;226.50;231333.00;;;;5082853;28;20243;-70
2022/05/26 00:19:12;;;;;;;0.00;0.00;;;14.20;99.90;226.50;231333.00;;;;5091014;28;20186;-71
2022/05/26 00:21:41;;;;;;;0.10;0.10;;;14.30;1.00;226.50;231333.00;;;;5092290;28;20205;-71
2022/05/26 00:24:11;;;;;;;0.00;0.00;;;14.30;82.50;226.50;231333.00;;;;5084125;28;20204;-72
2022/05/26 00:26:40;;;;;;;0.00;0.00;;;14.30;99.90;226.50;231333.00;;;;5071679;28;20193;-72
2022/05/26 00:29:09;;;;;;;0.10;0.10;;;14.30;99.90;226.50;231333.00;;;;5074031;28;20613;-71
2022/05/26 00:31:37;;;;;;;0.00;0.00;;;14.30;1.00;226.50;231333.00;;;;5094346;28;20225;-71
2022/05/26 00:34:06;;;;;;;0.00;0.00;;;14.40;99.90;226.50;231333.00;;;;5116775;22;20508;-69
2022/05/26 00:36:44;;;;;;;0.00;0.00;;;14.30;1.00;226.50;231333.00;;;;5132688;27;20192;-67
2022/05/26 00:39:17;;;;;;;0.00;0.00;;;14.30;99.90;226.50;231333.00;;;;5132207;27;20187;-67
2022/05/26 00:41:52;;;;;;;0.00;0.00;;;14.30;85.50;226.50;231333.00;;;;5132738;27;20203;-67
2022/05/26 00:44:21;;;;;;;0.00;0.00;;;14.30;99.90;226.50;231333.00;;;;5132645;27;20207;-69
2022/05/26 00:46:57;;;;;;;0.00;0.00;;;14.30;99.90;226.50;231333.00;;;;5131332;27;20196;-67
2022/05/26 00:49:38;;;;;;;0.10;0.10;;;14.30;99.90;226.50;231333.00;;;;5129591;27;20188;-67
2022/05/26 00:52:12;;;;;;;0.00;0.00;;;14.20;99.90;226.50;231333.00;;;;5114170;27;20714;-67
2022/05/26 00:54:41;;;;;;;0.00;0.00;;;14.20;1.00;226.50;231333.00;;;;5116487;27;20216;-68
2022/05/26 00:57:19;;;;;;;0.00;0.00;;;14.20;1.00;226.50;231333.00;;;;5111927;28;20197;-68
2022/05/26 00:59:55;;;;;;;0.10;0.10;;;14.20;99.90;226.50;231333.00;;;;5112870;27;20192;-68
2022/05/26 01:02:32;;;;;;;0.00;0.00;;;14.20;99.90;226.50;231333.00;;;;5124324;27;20199;-67
2022/05/26 01:05:11;;;;;;;0.08;0.08;;;14.10;1.00;226.50;231333.00;;;;5130747;27;20271;-67
2022/05/26 01:07:41;;;;;;;0.10;0.10;;;14.30;99.90;226.50;231333.00;;;;5113667;27;20776;-68
2022/05/26 01:10:14;;;;;;;0.03;0.03;;;14.30;99.90;226.50;231333.00;;;;5130108;27;20195;-68
2022/05/26 01:12:45;;;;;;;0.00;0.00;;;14.30;99.90;226.50;231333.00;;;;5117694;27;20200;-68
2022/05/26 01:15:18;;;;;;;0.10;0.10;;;14.30;99.90;226.50;231333.00;;;;5127735;27;20268;-68
2022/05/26 01:18:03;;;;;;;0.10;0.10;;;14.30;99.90;226.50;231333.00;;;;5131871;27;20217;-68
2022/05/26 01:20:57;;;;;;;0.00;0.00;;;14.40;99.90;226.50;231333.00;;;;5120327;27;20563;-68
2022/05/26 01:24:01;;;;;;;0.00;0.00;;;14.40;99.90;226.50;231333.00;;;;5112255;28;20192;-67
2022/05/26 01:27:06;;;;;;;0.00;0.00;;;14.40;41.10;226.50;231333.00;;;;5111493;28;20224;-67
2022/05/26 01:30:14;;;;;;;0.10;0.10;;;14.40;1.00;226.50;231333.00;;;;5087418;28;20200;-68
2022/05/26 01:33:09;;;;;;;0.00;0.00;;;14.50;1.00;226.50;231333.00;;;;5121430;27;20207;-67
2022/05/26 01:35:47;;;;;;;0.10;0.10;;;14.50;1.00;226.50;231333.00;;;;5113546;28;20281;-68
2022/05/26 01:38:31;;;;;;;0.10;0.10;;;14.50;1.00;226.50;231333.00;;;;5112074;28;20188;-68
2022/05/26 01:41:13;;;;;;;0.00;0.00;;;14.50;1.00;226.50;231333.00;;;;5113523;28;20621;-68
2022/05/26 01:43:55;;;;;;;0.00;0.00;;;14.50;1.00;226.50;231333.00;;;;5124298;28;20202;-69
2022/05/26 01:46:32;;;;;;;0.00;0.00;;;14.40;1.00;226.50;231333.00;;;;5130490;27;20215;-68
2022/05/26 01:49:15;;;;;;;0.00;0.00;;;14.40;1.00;226.50;231333.00;;;;5111304;28;20189;-68
2022/05/26 01:51:54;;;;;;;0.03;0.03;;;14.40;1.00;226.50;231333.00;;;;5131943;28;20204;-68
2022/05/26 01:54:30;;;;;;;0.00;0.00;;;14.30;1.00;226.50;231333.00;;;;5132177;28;20260;-68
2022/05/26 01:57:06;;;;;;;0.00;0.00;;;14.40;1.00;226.50;231333.00;;;;5126614;28;20195;-67
2022/05/26 01:59:40;;;;;;;0.00;0.00;;;14.40;1.00;226.50;231333.00;;;;5113058;28;20199;-68
2022/05/26 02:02:18;;;;;;;0.00;0.00;;;14.40;1.00;226.50;231333.00;;;;5111924;28;20181;-69
2022/05/26 02:04:54;;;;;;;0.00;0.00;;;14.40;1.00;226.50;231333.00;;;;5112948;28;20753;-69
2022/05/26 02:07:33;;;;;;;0.10;0.10;;;14.40;1.00;226.50;231333.00;;;;5118603;28;20215;-68
2022/05/26 02:10:10;;;;;;;0.00;0.00;;;14.40;1.00;226.50;231333.00;;;;5123856;28;20192;-68
2022/05/26 02:12:45;;;;;;;0.00;0.00;;;14.40;1.00;226.50;231333.00;;;;5112586;28;20200;-68
2022/05/26 02:15:21;;;;;;;0.00;0.00;;;14.40;1.00;226.50;231333.00;;;;5133667;27;20219;-69
2022/05/26 02:17:58;;;;;;;0.10;0.10;;;14.40;1.00;226.50;231333.00;;;;5135089;27;20230;-68
2022/05/26 02:20:36;;;;;;;0.00;0.00;;;14.50;1.00;226.50;231333.00;;;;5122886;27;20192;-68
2022/05/26 02:23:12;;;;;;;0.00;0.00;;;14.40;1.00;226.50;231333.00;;;;5115240;28;20227;-68
2022/05/26 02:25:41;;;;;;;0.00;0.00;;;14.40;1.00;226.50;231333.00;;;;5114561;28;20212;-67
2022/05/26 02:28:12;;;;;;;0.00;0.00;;;14.40;1.00;226.50;231333.00;;;;5133290;27;20609;-68
2022/05/26 02:30:43;;;;;;;0.00;0.00;;;14.40;1.00;226.50;231333.00;;;;5119136;27;20200;-68
2022/05/26 02:33:17;;;;;;;0.05;0.05;;;14.40;1.00;226.50;231333.00;;;;5123085;27;20196;-68
2022/05/26 02:35:51;;;;;;;0.00;0.00;;;14.40;1.00;226.50;231333.00;;;;5115498;27;20227;-68
2022/05/26 02:38:23;;;;;;;0.00;0.00;;;14.40;1.00;226.50;231333.00;;;;5119796;27;20307;-68
2022/05/26 02:40:54;;;;;;;0.00;0.00;;;14.40;1.00;226.50;231333.00;;;;5117520;27;20252;-68
2022/05/26 02:43:27;;;;;;;0.00;0.00;;;14.50;1.00;226.50;231333.00;;;;5114731;28;20641;-68
2022/05/26 02:46:11;;;;;;;0.00;0.00;;;14.40;1.00;226.50;231333.00;;;;5114986;28;20224;-68
2022/05/26 02:49:02;;;;;;;0.00;0.00;;;14.40;1.00;226.50;231333.00;;;;5128564;27;20240;-68
2022/05/26 02:51:43;;;;;;;0.10;0.10;;;14.50;1.00;226.50;231333.00;;;;5117097;27;20200;-67
2022/05/26 02:54:30;;;;;;;0.00;0.00;;;14.50;1.00;226.50;231333.00;;;;5116498;28;20200;-68
2022/05/26 02:57:15;;;;;;;0.00;0.00;;;14.40;1.00;226.50;231333.00;;;;5117351;28;20200;-68
2022/05/26 03:00:04;;;;;;;0.00;0.00;;;14.40;99.90;226.50;231333.00;;;;5118682;27;20586;-68
2022/05/26 03:02:44;;;;;;;0.05;0.05;;;14.30;99.90;226.50;231333.00;;;;5116823;28;20237;-70
2022/05/26 03:05:20;;;;;;;0.00;0.00;;;14.30;99.90;226.50;231333.00;;;;5118873;27;20200;-68
2022/05/26 03:07:55;;;;;;;0.10;0.10;;;14.30;99.90;226.50;231333.00;;;;5116997;28;20248;-68
2022/05/26 03:10:26;;;;;;;0.10;0.10;;;14.30;99.90;226.50;231333.00;;;;5129287;27;20235;-69
2022/05/26 03:12:56;;;;;;;0.10;0.10;;;14.40;99.90;226.50;231333.00;;;;5134235;27;20248;-68
2022/05/26 03:15:24;;;;;;;0.00;0.00;;;14.40;99.90;226.50;231333.00;;;;5130955;27;20215;-68
2022/05/26 03:17:53;;;;;;;0.05;0.05;;;14.40;99.90;226.50;231333.00;;;;5113200;27;20216;-68
2022/05/26 03:20:22;;;;;;;0.10;0.10;;;14.40;99.90;226.50;231333.00;;;;5115593;27;20192;-68
2022/05/26 03:22:51;;;;;;;0.00;0.00;;;14.40;99.90;226.50;231333.00;;;;5120811;27;20733;-68
2022/05/26 03:25:20;;;;;;;0.00;0.00;;;14.40;99.90;226.50;231333.00;;;;5133371;27;20222;-68
2022/05/26 03:27:49;;;;;;;0.00;0.00;;;14.40;99.90;226.50;231333.00;;;;5133006;27;20268;-69
2022/05/26 03:30:18;;;;;;;0.00;0.00;;;14.40;99.90;226.50;231333.00;;;;5129199;27;20196;-67
2022/05/26 03:32:46;;;;;;;0.05;0.05;;;14.50;99.90;226.50;231333.00;;;;5114046;27;20705;-67
2022/05/26 03:40:53;;;;;;;0.00;0.00;;;14.50;99.90;226.50;231333.00;;;;5127190;27;20744;-68
2022/05/26 03:43:28;;;;;;;0.10;0.10;;;14.50;99.90;226.50;231333.00;;;;5133931;27;20188;-67
2022/05/26 03:45:59;;;;;;;0.00;0.00;;;14.50;99.90;226.50;231333.00;;;;5133636;27;20597;-68
2022/05/26 03:48:28;;;;;;;0.00;0.00;;;14.50;99.90;226.50;231333.00;;;;5120221;27;20234;-68
2022/05/26 03:50:57;;;;;;;0.10;0.10;;;14.50;99.90;226.50;231333.00;;;;5131267;27;20778;-68
2022/05/26 03:53:26;;;;;;;0.00;0.00;;;14.40;1.00;226.50;231333.00;;;;5134272;27;20195;-68
2022/05/26 03:55:55;;;;;;;0.00;0.00;;;14.40;1.00;226.50;231333.00;;;;5130843;27;20606;-69
2022/05/26 03:58:24;;;;;;;0.00;0.00;;;14.30;1.00;226.50;231333.00;;;;5133444;27;20188;-68
2022/05/26 04:00:53;;;;;;;0.00;0.00;;;14.40;1.00;226.50;231333.00;;;;5132240;27;20192;-69
2022/05/26 04:03:21;;;;;;;0.10;0.10;;;14.40;1.00;226.50;231333.00;;;;5134423;27;20230;-68
2022/05/26 04:05:50;;;;;;;0.00;0.00;;;14.40;1.00;226.50;231333.00;;;;5129467;27;20272;-68
2022/05/26 04:08:18;;;;;;;0.00;0.00;;;14.40;1.00;226.50;231333.00;;;;5134467;27;20219;-68
2022/05/26 04:10:48;;;;;;;0.00;0.00;;;14.40;1.00;226.50;231333.00;;;;5132814;27;20199;-68
2022/05/26 04:13:16;;;;;;;0.10;0.10;;;14.40;1.00;226.50;231333.00;;;;5132172;27;20200;-68
2022/05/26 04:15:45;;;;;;;0.10;0.10;;;14.30;99.90;226.50;231333.00;;;;5132614;27;20214;-69
2022/05/26 04:18:13;;;;;;;0.00;0.00;;;14.20;99.90;226.50;231333.00;;;;5133472;27;20199;-68
2022/05/26 04:20:41;;;;;;;0.10;0.10;;;14.20;99.90;226.50;231333.00;;;;5130763;27;20195;-71
2022/05/26 04:23:10;;;;;;;0.10;0.10;;;14.20;1.00;226.50;231333.00;;;;5126392;27;20199;-69
2022/05/26 04:25:38;;;;;;;0.00;0.00;;;14.20;1.00;226.50;231333.00;;;;5132381;27;20703;-69
2022/05/26 04:28:08;;;;;;;0.00;0.00;;;14.10;1.00;226.50;231333.00;;;;5132629;27;20222;-68
2022/05/26 04:30:37;;;;;;;0.10;0.10;;;14.10;1.00;226.50;231333.00;;;;5117755;27;20680;-68
2022/05/26 04:33:05;;;;;;;0.10;0.10;;;14.10;51.40;226.50;231333.00;;;;5112628;28;20208;-68
2022/05/26 04:35:37;;;;;;;0.10;0.10;;;14.10;3.40;226.50;231333.00;;;;5119259;27;20219;-68
2022/05/26 04:38:05;;;;;;;0.10;0.10;;;14.00;99.90;226.50;231333.00;;;;5126091;27;20211;-67
2022/05/26 04:40:33;;;;;;;0.00;0.00;;;14.00;99.90;226.50;231333.00;;;;5123729;27;20252;-68
2022/05/26 04:43:02;;;;;;;0.10;0.10;;;14.00;1.00;226.50;231333.00;;;;5130339;27;20266;-67
2022/05/26 04:45:31;;;;;;;0.00;0.00;;;14.10;1.00;226.50;231333.00;;;;5131964;27;20695;-67
2022/05/26 04:48:00;;;;;;;0.00;0.00;;;14.10;99.90;226.50;231333.00;;;;5131844;27;20276;-68
2022/05/26 04:50:28;;;;;;;0.00;0.00;;;14.10;1.00;226.50;231333.00;;;;5119928;27;20726;-68
2022/05/26 04:52:57;;;;;;;0.10;0.10;;;14.10;1.00;226.50;231333.00;;;;5129833;27;20199;-68
2022/05/26 04:55:25;;;;;;;0.00;0.00;;;14.20;1.00;226.50;231333.00;;;;5120698;27;20262;-67
2022/05/26 04:57:54;;;;;;;0.00;0.00;;;14.20;1.00;226.50;231333.00;;;;5125634;27;20727;-68
2022/05/26 05:00:23;;;;;;;0.10;0.10;;;14.20;1.00;226.50;231333.00;;;;5131438;27;20241;-67
2022/05/26 05:02:54;;;;;;;0.03;0.03;;;14.20;1.00;226.50;231333.00;;;;5111952;28;20196;-68
2022/05/26 05:05:23;;;;;;;0.00;0.00;;;14.20;1.00;226.50;231333.00;;;;5119851;27;20207;-67
2022/05/26 05:07:51;;;;;;;0.00;0.00;;;14.30;1.00;226.50;231333.00;;;;5118597;27;20689;-67
2022/05/26 05:10:20;;;;;;;0.00;0.00;;;14.40;1.00;226.50;231333.00;;;;5118264;27;20244;-68
2022/05/26 05:12:51;;;;;;;0.00;0.00;;;14.50;1.00;226.50;231333.00;;;;5111917;28;20188;-67
2022/05/26 05:15:33;;;;;;;0.00;0.00;;;14.50;1.00;226.50;231333.00;;;;5128105;27;20222;-68
2022/05/26 05:18:03;;;;;;;0.00;0.00;;;14.70;1.00;226.50;231333.00;;;;5122896;27;20735;-68
2022/05/26 05:20:34;;;;;;;0.00;0.00;;;14.70;99.90;226.50;231333.00;;;;5117132;28;20598;-67
2022/05/26 05:23:07;;;;;;;0.10;0.10;;;14.80;1.00;226.50;231333.00;;;;5122471;27;20184;-68
2022/05/26 05:25:41;;;;;;;0.10;0.10;;;14.80;1.00;226.50;231333.00;;;;5111487;28;20219;-69
2022/05/26 05:28:17;;;;;;;0.00;0.00;;;14.80;1.00;226.50;231333.00;;;;5111846;28;20224;-69
2022/05/26 05:30:56;;;;;;;0.03;0.03;;;14.90;1.00;226.50;231333.00;;;;5119439;28;20184;-69
2022/05/26 05:33:32;;;;;;;0.00;0.00;;;15.00;1.00;226.50;231333.00;;;;5115067;28;20567;-69
2022/05/26 05:36:10;;;;;;;0.00;0.00;;;15.00;99.90;226.50;231333.00;;;;5117812;27;20196;-69
2022/05/26 05:38:41;;;;;;;0.10;0.10;;;15.10;1.00;226.50;231333.00;;;;5120691;28;20196;-69
2022/05/26 05:41:12;;;;;;;0.10;0.10;;;15.20;1.00;226.50;231333.00;;;;5127708;28;20528;-69
2022/05/26 05:43:42;;;;;;;0.00;0.00;;;15.20;99.90;226.50;231333.00;;;;5123869;28;20195;-69
2022/05/26 05:46:11;;;;;;;0.10;0.10;;;15.30;1.00;226.50;231333.00;;;;5122238;27;22251;-69
2022/05/26 05:48:43;;;;;;;0.00;0.00;;;15.40;99.90;226.50;231333.00;;;;5129493;27;20271;-68
2022/05/26 05:51:12;;;;;;;0.00;0.00;;;15.40;99.90;226.50;231333.00;;;;5125158;27;20730;-68
2022/05/26 05:53:42;;;;;;;0.00;0.00;;;15.40;99.90;226.50;231333.00;;;;5136244;27;20184;-68
2022/05/26 05:56:11;;;;;;;0.10;0.10;;;15.50;18.70;226.50;231333.00;;;;5130364;27;20650;-68
2022/05/26 05:58:40;;;;;;;0.00;0.00;;;15.60;26.90;226.50;231333.00;;;;5128065;27;20257;-68
2022/05/26 06:01:09;;;;;;;0.00;0.00;;;15.60;1.00;226.50;231333.00;;;;5135640;27;20244;-68
2022/05/26 06:03:38;;;;;;;0.00;0.00;;;15.60;1.00;226.50;231333.00;;;;5126750;27;20219;-68
2022/05/26 06:06:08;;;;;;;0.00;0.00;;;15.70;1.00;226.50;231333.00;;;;5113196;27;20290;-69
2022/05/26 06:08:38;;;;;;;0.00;0.00;;;15.70;1.00;226.50;231333.00;;;;5122774;27;20248;-68
2022/05/26 06:11:06;;;;;;;0.00;0.00;;;15.70;1.00;226.50;231333.00;;;;5121184;27;20204;-68
2022/05/26 06:13:35;;;;;;;0.00;0.00;;;15.70;99.90;226.50;231333.00;;;;5131709;27;20188;-68
2022/05/26 06:16:04;;;;;;;0.00;0.00;;;15.80;99.90;226.50;231333.00;;;;5135212;27;20559;-69
2022/05/26 06:18:34;;;;;;;0.00;0.00;;;15.80;99.90;226.50;231333.00;;;;5136117;27;20187;-68
2022/05/26 06:21:04;;;;;;;0.00;0.00;;;15.90;99.90;226.50;231333.00;;;;5128032;27;20199;-69
2022/05/26 06:23:35;;;;;;;0.05;0.05;;;16.00;99.90;226.50;231333.00;;;;5104874;27;20195;-68
2022/05/26 06:26:03;;;;;;;0.00;0.00;;;16.10;1.00;226.50;231333.00;;;;5118982;27;20200;-69
2022/05/26 06:31:20;;;;;;;0.00;0.00;;;16.20;1.00;226.50;231333.00;;;;5124268;27;20184;-69
2022/05/26 06:39:35;;;;;;;0.10;0.10;;;16.40;1.00;226.50;231333.00;;;;5034475;28;20199;-69
2022/05/26 06:42:07;;;;;;;0.00;0.00;;;16.40;1.00;226.50;231333.00;;;;5031843;28;20200;-69
2022/05/26 06:44:38;;;;;;;0.00;0.00;;;16.50;1.00;226.50;231333.00;;;;5040885;28;20210;-69
2022/05/26 06:47:11;;;;;;;0.00;0.00;;;16.60;1.00;226.50;231333.00;;;;5032790;28;20199;-69
2022/05/26 06:49:41;;;;;;;0.00;0.00;;;16.70;99.90;226.50;231333.00;;;;5031892;28;20288;-70
2022/05/26 06:52:13;;;;;;;0.00;0.00;;;16.70;99.90;226.50;231333.00;;;;5019491;28;20200;-69
2022/05/26 06:54:45;;;;;;;0.00;0.00;;;16.80;87.90;226.50;231333.00;;;;5028431;28;20218;-69
2022/05/26 06:57:15;;;;;;;0.10;0.10;;;16.90;1.00;226.50;231333.00;;;;5041060;28;20301;-69
2022/05/26 06:59:44;;;;;;;0.00;0.00;;;16.80;1.00;226.50;231333.00;;;;5033740;28;20203;-69
2022/05/26 07:02:14;;;;;;;0.00;0.00;;;16.90;1.00;226.50;231333.00;;;;5023276;28;20319;-68
2022/05/26 07:04:44;;;;;;;0.05;0.05;;;16.80;1.00;226.50;231333.00;;;;5025057;28;20257;-70
2022/05/26 07:07:16;;;;;;;0.00;0.00;;;16.80;1.00;226.50;231333.00;;;;5028254;28;20191;-69
2022/05/26 07:09:46;;;;;;;0.00;0.00;;;16.90;1.00;226.50;231333.00;;;;5035101;28;20226;-69
2022/05/26 07:12:16;;;;;;;0.00;0.00;;;16.90;1.00;226.50;231333.00;;;;5039943;28;20230;-69
2022/05/26 07:14:44;;;;;;;0.00;0.00;;;17.00;1.00;226.50;231333.00;;;;5026980;28;20217;-69
2022/05/26 07:17:13;;;;;;;0.00;0.00;;;17.00;1.00;226.50;231333.00;;;;5024756;28;20203;-69
2022/05/26 07:19:42;;;;;;;0.10;0.10;;;17.00;1.00;226.50;231333.00;;;;5019802;28;20250;-69
2022/05/26 07:22:11;;;;;;;0.00;0.00;;;17.00;1.00;226.50;231333.00;;;;5024649;28;20631;-68
2022/05/26 07:24:40;;;;;;;0.00;0.00;;;17.10;1.00;226.50;231333.00;;;;5027169;28;20214;-69
2022/05/26 07:27:10;;;;;;;0.00;0.00;;;17.00;1.00;226.50;231333.00;;;;5028438;28;20187;-69
2022/05/26 07:29:39;;;;;;;0.00;0.00;;;17.00;1.00;226.50;231333.00;;;;5027647;28;20770;-69
2022/05/26 07:32:08;;;;;;;0.00;0.00;;;17.10;1.00;226.50;231333.00;;;;5036038;28;20199;-69
2022/05/26 07:34:37;;;;;;;0.00;0.00;;;17.00;1.00;226.50;231333.00;;;;5026035;28;20225;-69
2022/05/26 07:42:40;;;;;;;0.00;0.00;;;17.10;1.00;226.50;231333.00;;;;5030269;28;20594;-69
2022/05/26 07:45:10;;;;;;;0.00;0.00;;;17.20;1.00;226.50;231333.00;;;;5015892;28;20294;-69
2022/05/26 07:47:39;;;;;;;0.00;0.00;;;17.20;1.00;226.50;231333.00;;;;5036077;28;20229;-71
2022/05/26 07:50:19;;;;;;;0.00;0.00;;;17.30;1.00;226.50;231333.00;;;;5036484;28;20222;-69
2022/05/26 07:52:49;;;;;;;0.00;0.00;;;17.40;1.00;226.50;231333.00;;;;5034172;28;20202;-69
2022/05/26 07:55:20;;;;;;;0.00;0.00;;;17.40;1.00;226.50;231333.00;;;;5020402;28;20211;-69
2022/05/26 07:57:58;;;;;;;0.00;0.00;;;17.30;1.00;226.50;231333.00;;;;5033517;28;20205;-69
2022/05/26 08:00:27;;;;;;;0.00;0.00;;;17.30;1.00;226.50;231333.00;;;;5034191;28;20203;-69
2022/05/26 08:02:57;;;;;;;0.00;0.00;;;17.40;1.00;226.50;231333.00;;;;5016893;28;20203;-72
2022/05/26 08:05:25;;;;;;;0.00;0.00;;;17.30;1.00;226.50;231333.00;;;;5034521;28;20571;-69
2022/05/26 08:07:54;;;;;;;0.00;0.00;;;17.40;1.00;226.50;231333.00;;;;5021298;28;20196;-68
2022/05/26 08:10:23;;;;;;;0.00;0.00;;;17.40;1.00;226.50;231333.00;;;;5014637;28;20282;-68
2022/05/26 08:12:52;;;;;;;0.00;0.00;;;17.50;1.00;226.50;231333.00;;;;5030609;28;20202;-68
2022/05/26 08:15:28;;;;;;;0.00;0.00;;;17.50;1.00;226.50;231333.00;;;;5014342;28;20704;-68
2022/05/26 08:17:56;;;;;;;0.00;0.00;;;17.50;1.00;226.50;231333.00;;;;5014079;28;20199;-68
2022/05/26 08:20:27;;;;;;;0.00;0.00;;;17.50;1.00;226.50;231333.00;;;;5014918;28;20196;-70
2022/05/26 08:22:56;;;;;;;0.00;0.00;;;17.60;1.00;226.50;231333.00;;;;5018222;28;20254;-70
2022/05/26 08:25:26;;;;;;;0.00;0.00;;;17.40;1.00;226.50;231333.00;;;;5014079;28;20242;-70
2022/05/26 08:27:55;;;;;;;0.00;0.00;;;17.50;1.00;226.50;231333.00;;;;5011956;28;20189;-71
2022/05/26 08:30:23;;;;;;;0.00;0.00;;;17.40;1.00;226.50;231333.00;;;;5012699;28;20720;-70
2022/05/26 08:32:55;;;;;;;0.00;0.00;;;17.50;1.00;226.50;231333.00;;;;5015757;28;20589;-71
2022/05/26 08:35:25;;;;;;;0.08;0.08;;;17.60;1.00;226.50;231333.00;;;;5030088;28;20226;-70
2022/05/26 08:37:54;;;;;;;0.00;0.00;;;17.70;1.00;226.50;231333.00;;;;5030228;28;20577;-69
2022/05/26 08:40:38;;;;;;;0.00;0.00;;;17.90;1.00;226.50;231333.00;;;;5031019;28;20203;-69
2022/05/26 08:43:14;;;;;;;0.00;0.00;;;17.90;1.00;226.50;231333.00;;;;5026708;28;20206;-69
2022/05/26 08:45:50;;;;;;;0.00;0.00;;;18.20;1.00;226.50;231333.00;;;;5015082;28;20587;-69
2022/05/26 08:48:57;;;;;;;0.00;0.00;;;18.00;1.00;226.50;231333.00;;;;5032132;28;20182;-69
2022/05/26 08:51:44;;;;;;;0.00;0.00;;;18.00;1.00;226.50;231333.00;;;;5013007;28;20203;-69
2022/05/26 08:54:22;;;;;;;0.00;0.00;;;17.70;1.00;226.50;231333.00;;;;5024653;28;20265;-69
2022/05/26 08:56:52;;;;;;;0.00;0.00;;;17.50;1.00;226.50;231333.00;;;;5027795;28;20717;-69
2022/05/26 08:59:28;;;;;;;0.00;0.00;;;17.70;99.90;226.50;231333.00;;;;5032079;28;20746;-69
2022/05/26 09:02:01;;;;;;;0.00;0.00;;;17.90;1.00;226.50;231333.00;;;;5030730;28;20209;-69
2022/05/26 09:04:32;;;;;;;0.00;0.00;;;18.00;1.00;226.50;231333.00;;;;5014925;28;20220;-69
2022/05/26 09:12:59;;;;;;;0.00;0.00;;;17.90;9.50;226.50;231333.00;;;;5031006;28;20534;-69
2022/05/26 09:15:30;;;;;;;0.00;0.00;;;18.00;47.80;226.50;231333.00;;;;5032002;28;20241;-69
2022/05/26 09:17:59;;;;;;;0.00;0.00;;;18.10;1.00;226.50;231333.00;;;;5031446;28;20202;-69
2022/05/26 09:20:39;;;;;;;0.00;0.00;;;18.10;1.00;226.50;231333.00;;;;5032093;28;20607;-69
2022/05/26 09:23:22;;;;;;;0.00;0.00;;;18.20;1.00;226.50;231333.00;;;;5019122;28;20198;-69
2022/05/26 09:25:55;;;;;;;0.00;0.00;;;18.40;1.00;226.50;231333.00;;;;5031440;28;20758;-69
2022/05/26 09:28:34;;;;;;;0.00;0.00;;;18.50;1.00;226.50;231333.00;;;;5028191;28;20199;-70
2022/05/26 09:31:23;;;;;;;0.00;0.00;;;18.50;1.00;226.50;231333.00;;;;5017813;28;20237;-69
2022/05/26 09:34:05;;;;;;;0.00;0.00;;;18.60;1.00;226.50;231333.00;;;;5024566;28;20191;-70
2022/05/26 09:36:45;;;;;;;0.00;0.00;;;18.40;1.00;226.50;231333.00;;;;5013565;28;20210;-70
2022/05/26 09:39:18;;;;;;;0.05;0.05;;;18.20;1.00;226.50;231333.00;;;;5012902;28;20184;-70
2022/05/26 09:41:50;;;;;;;0.00;0.00;;;18.10;1.00;226.50;231333.00;;;;5012435;28;20200;-71
2022/05/26 09:44:50;;;;;;;0.00;0.00;;;18.00;1.00;226.50;231333.00;;;;5025976;28;20276;-69
2022/05/26 09:47:39;;;;;;;0.00;0.00;;;18.00;1.00;226.50;231333.00;;;;5031616;28;20608;-69
2022/05/26 09:50:13;;;;;;;0.00;0.00;;;17.90;1.00;226.50;231333.00;;;;5020619;28;20227;-69
2022/05/26 09:52:49;;;;;;;0.00;0.00;;;17.90;1.00;226.50;231333.00;;;;5022152;28;20190;-69
2022/05/26 09:55:24;;;;;;;0.00;0.00;;;17.90;1.00;226.50;231333.00;;;;5029778;28;20293;-69
2022/05/26 09:58:07;;;;;;;0.00;0.00;;;17.90;1.00;226.50;231333.00;;;;5012855;28;20723;-69
2022/05/26 10:00:40;;;;;;;0.00;0.00;;;18.10;1.00;226.50;231333.00;;;;5020221;28;20575;-69
2022/05/26 10:03:21;;;;;;;0.00;0.00;;;18.20;1.00;226.50;231333.00;;;;5018454;28;20195;-69
2022/05/26 10:06:15;;;;;;;0.00;0.00;;;18.40;99.90;226.50;231333.00;;;;5031788;28;20215;-69
2022/05/26 10:09:05;;;;;;;0.00;0.00;;;18.50;99.90;226.50;231333.00;;;;5032749;28;20673;-69
2022/05/26 10:11:56;;;;;;;0.00;0.00;;;18.60;99.90;226.50;231333.00;;;;5020212;28;20235;-69
2022/05/26 10:14:47;;;;;;;0.00;0.00;;;18.70;99.90;226.50;231333.00;;;;5028628;28;20215;-69
2022/05/26 10:17:30;;;;;;;0.00;0.00;;;18.90;99.90;226.50;231333.00;;;;5031269;28;20190;-69
2022/05/26 10:20:35;;;;;;;0.00;0.00;;;19.10;99.90;226.50;231333.00;;;;5031850;28;20198;-69
2022/05/26 10:23:31;;;;;;;0.00;0.00;;;19.40;99.90;226.50;231333.00;;;;5016564;28;20207;-70
2022/05/26 10:26:15;;;;;;;0.00;0.00;;;19.80;98.90;226.50;231333.00;;;;5011563;28;20608;-69
2022/05/26 10:29:09;;;;;;;0.00;0.00;;;19.70;71.80;226.50;231333.00;;;;5012169;28;20261;-69
2022/05/26 10:32:00;;;;;;;0.00;0.00;;;19.80;57.30;226.50;231333.00;;;;5014972;28;20256;-69
2022/05/26 10:34:59;;;;;;;0.00;0.00;;;19.80;56.70;226.50;231333.00;;;;5019714;28;20235;-69
2022/05/26 10:37:51;;;;;;;0.00;0.00;;;19.70;44.40;226.50;231333.00;;;;5035662;28;20195;-69
2022/05/26 10:40:35;;;;;;;0.00;0.00;;;19.70;38.60;226.50;231333.00;;;;5023683;28;20204;-69
2022/05/26 10:43:13;;;;;;;0.00;0.00;;;19.50;28.00;226.50;231333.00;;;;5020374;28;20711;-69
2022/05/26 10:45:48;;;;;;;0.00;0.00;;;19.30;21.80;226.50;231333.00;;;;5031937;28;20302;-69
2022/05/26 10:48:26;;;;;;;0.00;0.00;;;19.20;22.30;226.50;231333.00;;;;5015790;28;20555;-70
2022/05/26 10:51:06;;;;;;;0.00;0.00;;;19.10;50.50;226.50;231333.00;;;;5019883;28;20273;-69
2022/05/26 10:53:47;;;;;;;0.00;0.00;;;19.10;29.00;226.50;231333.00;;;;5023975;28;20221;-69
2022/05/26 10:56:29;;;;;;;0.00;0.00;;;19.00;50.50;226.50;231333.00;;;;5034905;28;20215;-70
2022/05/26 10:59:14;;;;;;;0.00;0.00;;;18.90;38.10;226.50;231333.00;;;;5035315;28;20613;-69
2022/05/26 11:01:48;;;;;;;0.00;0.00;;;18.80;48.70;226.50;231333.00;;;;5030309;28;20595;-69
2022/05/26 11:04:26;;;;;;;0.00;0.00;;;18.80;56.10;226.50;231333.00;;;;5015174;28;20714;-69
2022/05/26 11:07:02;;;;;;;0.00;0.00;;;19.30;53.50;226.50;231333.00;;;;5014448;28;20196;-68
2022/05/26 11:09:38;;;;;;;0.00;0.00;;;19.70;37.80;226.50;231333.00;;;;5014910;28;20653;-69
2022/05/26 11:12:16;;;;;;;0.00;0.00;;;19.90;27.70;226.50;231333.00;;;;5029510;28;20218;-68
2022/05/26 11:17:49;;;;;;;0.00;0.00;;;20.40;14.80;226.50;231333.00;;;;5024999;28;20242;-70
2022/05/26 11:20:23;;;;;;;0.00;0.00;;;20.40;5.70;226.50;231333.00;;;;5014442;28;20200;-69
2022/05/26 11:22:53;;;;;;;0.00;0.00;;;20.30;1.00;226.50;231333.00;;;;5014733;28;20243;-70
2022/05/26 11:25:29;;;;;;;0.00;0.00;;;20.70;1.00;226.50;231333.00;;;;5014570;28;20222;-70
2022/05/26 11:28:07;;;;;;;0.00;0.00;;;20.70;1.00;226.50;231333.00;;;;5013991;28;20198;-69
2022/05/26 11:36:49;;;;;;;0.00;0.00;;;20.00;1.00;226.50;231333.00;;;;5014349;28;20249;-69
2022/05/26 11:39:23;;;;;;;0.00;0.00;;;20.30;1.00;226.50;231333.00;;;;5015478;28;20192;-69
2022/05/26 11:41:58;;;;;;;0.00;0.00;;;20.50;1.00;226.50;231333.00;;;;5018351;28;20254;-68
2022/05/26 11:44:40;;;;;;;0.00;0.00;;;20.20;1.00;226.50;231333.00;;;;5014579;28;20222;-70
2022/05/26 11:47:33;;;;;;;0.00;0.00;;;19.90;1.00;226.50;231333.00;;;;5034101;28;20606;-69
2022/05/26 11:50:27;;;;;;;0.00;0.00;;;20.00;1.00;226.50;231333.00;;;;5035214;28;20191;-69
2022/05/26 11:53:35;;;;;;;0.00;0.00;;;20.20;1.00;226.50;231333.00;;;;5016445;28;20621;-69